Time,TemperatureF,DewpointF,PressureIn,WindDirection,WindDirectionDegrees,WindSpeedMPH,WindSpeedGustMPH,Humidity,HourlyPrecipIn,Conditions,Clouds,dailyrainin,SoftwareType,DateUTC
2013-02-22 00:05:00,21.1,18.9,29.90,NNE,18,1.0,2.0,91,0.00,,,0.00,Wunderground v.1.15,2013-02-22 06:05:00,
2013-02-22 00:15:00,21.1,18.9,29.90,NNE,26,1.0,2.0,91,0.00,,,0.00,Wunderground v.1.15,2013-02-22 06:15:00,
2013-02-22 00:20:00,21.0,18.8,29.90,North,352,1.0,1.0,91,0.00,,,0.00,Wunderground v.1.15,2013-02-22 06:20:00,
2013-02-22 00:30:00,20.9,18.7,29.90,NNE,29,1.0,1.0,91,0.00,,,0.00,Wunderground v.1.15,2013-02-22 06:30:00,
2013-02-22 00:35:00,20.9,18.7,29.90,NE,45,1.0,2.0,91,0.00,,,0.00,Wunderground v.1.15,2013-02-22 06:35:00,
2013-02-22 00:45:00,20.8,18.6,29.90,NW,319,1.0,2.0,91,0.00,,,0.00,Wunderground v.1.15,2013-02-22 06:45:00,
2013-02-22 00:55:00,20.7,18.5,29.90,ENE,60,1.0,3.0,91,0.00,,,0.00,Wunderground v.1.15,2013-02-22 06:55:00,
2013-02-22 01:00:00,20.6,18.4,29.90,NNE,25,2.0,2.0,91,0.00,,,0.00,Wunderground v.1.15,2013-02-22 07:00:00,
2013-02-22 01:15:00,20.6,18.4,29.89,North,11,1.0,1.0,91,0.00,,,0.00,Wunderground v.1.15,2013-02-22 07:15:00,
2013-02-22 01:25:00,20.5,18.3,29.89,NNE,18,1.0,2.0,91,0.00,,,0.00,Wunderground v.1.15,2013-02-22 07:25:00,
2013-02-22 01:30:00,20.4,18.2,29.89,ENE,64,1.0,2.0,91,0.00,,,0.00,Wunderground v.1.15,2013-02-22 07:30:00,
2013-02-22 01:40:00,20.3,18.1,29.90,NNE,24,1.0,1.0,91,0.00,,,0.00,Wunderground v.1.15,2013-02-22 07:40:00,
2013-02-22 01:45:00,20.3,18.1,29.90,NE,46,1.0,3.0,91,0.00,,,0.00,Wunderground v.1.15,2013-02-22 07:45:00,
2013-02-22 01:50:00,20.2,18.0,29.90,NNE,20,1.0,3.0,91,0.00,,,0.00,Wunderground v.1.15,2013-02-22 07:50:00,
2013-02-22 02:00:00,20.2,18.0,29.90,NW,319,1.0,1.0,91,0.00,,,0.00,Wunderground v.1.15,2013-02-22 08:00:00,
2013-02-22 02:10:00,20.1,17.9,29.90,North,9,1.0,1.0,91,0.00,,,0.00,Wunderground v.1.15,2013-02-22 08:10:00,
2013-02-22 02:15:00,20.0,17.8,29.90,NNW,344,1.0,1.0,91,0.00,,,0.00,Wunderground v.1.15,2013-02-22 08:15:00,
2013-02-22 02:25:00,19.9,17.7,29.90,NNW,345,1.0,1.0,91,0.00,,,0.00,Wunderground v.1.15,2013-02-22 08:25:00,
2013-02-22 02:35:00,19.8,17.6,29.90,NW,323,1.0,1.0,91,0.00,,,0.00,Wunderground v.1.15,2013-02-22 08:35:00,
2013-02-22 02:45:00,19.8,17.6,29.90,NW,319,1.0,1.0,91,0.00,,,0.00,Wunderground v.1.15,2013-02-22 08:45:00,
2013-02-22 02:55:00,19.7,17.5,29.90,NW,316,1.0,2.0,91,0.00,,,0.00,Wunderground v.1.15,2013-02-22 08:55:00,
2013-02-22 03:00:00,19.7,17.2,29.90,NNW,336,1.0,1.0,90,0.00,,,0.00,Wunderground v.1.15,2013-02-22 09:00:00,
2013-02-22 03:10:00,19.6,17.1,29.90,NNW,329,1.0,1.0,90,0.00,,,0.00,Wunderground v.1.15,2013-02-22 09:10:00,
2013-02-22 03:15:00,19.6,17.1,29.89,NW,319,1.0,2.0,90,0.00,,,0.00,Wunderground v.1.15,2013-02-22 09:15:00,
2013-02-22 03:25:00,19.6,17.1,29.89,NNW,332,1.0,2.0,90,0.00,,,0.00,Wunderground v.1.15,2013-02-22 09:25:00,
2013-02-22 03:35:00,19.5,17.0,29.90,NW,321,1.0,2.0,90,0.00,,,0.00,Wunderground v.1.15,2013-02-22 09:35:00,
2013-02-22 03:40:00,19.5,17.0,29.90,NNW,333,1.0,1.0,90,0.00,,,0.00,Wunderground v.1.15,2013-02-22 09:40:00,
2013-02-22 03:45:00,19.4,16.9,29.90,NW,322,1.0,1.0,90,0.00,,,0.00,Wunderground v.1.15,2013-02-22 09:45:00,
2013-02-22 03:55:00,19.2,16.7,29.90,North,354,1.0,1.0,90,0.00,,,0.00,Wunderground v.1.15,2013-02-22 09:55:00,
2013-02-22 04:05:00,19.0,16.6,29.90,NW,322,1.0,2.0,90,0.00,,,0.00,Wunderground v.1.15,2013-02-22 10:05:00,
2013-02-22 04:15:00,18.9,16.5,29.90,NW,315,2.0,4.0,90,0.00,,,0.00,Wunderground v.1.15,2013-02-22 10:15:00,
2013-02-22 04:20:00,18.8,16.4,29.90,North,11,1.0,4.0,90,0.00,,,0.00,Wunderground v.1.15,2013-02-22 10:20:00,
2013-02-22 04:35:00,18.7,16.3,29.91,NW,314,1.0,2.0,90,0.00,,,0.00,Wunderground v.1.15,2013-02-22 10:35:00,
2013-02-22 04:40:00,18.6,16.2,29.91,NNW,345,2.0,2.0,90,0.00,,,0.00,Wunderground v.1.15,2013-02-22 10:40:00,
2013-02-22 04:50:00,18.5,16.1,29.91,NW,314,1.0,2.0,90,0.00,,,0.00,Wunderground v.1.15,2013-02-22 10:50:00,
2013-02-22 04:56:00,18.4,16.0,29.91,NW,323,1.0,2.0,90,0.00,,,0.00,Wunderground v.1.15,2013-02-22 10:56:00,
2013-02-22 05:05:00,18.4,16.0,29.91,NW,326,1.0,2.0,90,0.00,,,0.00,Wunderground v.1.15,2013-02-22 11:05:00,
2013-02-22 05:15:00,18.5,16.1,29.92,North,4,2.0,2.0,90,0.00,,,0.00,Wunderground v.1.15,2013-02-22 11:15:00,
2013-02-22 05:25:00,18.6,16.2,29.92,NW,322,2.0,3.0,90,0.00,,,0.00,Wunderground v.1.15,2013-02-22 11:25:00,
2013-02-22 05:35:00,18.5,16.1,29.92,NNW,347,1.0,1.0,90,0.00,,,0.00,Wunderground v.1.15,2013-02-22 11:35:00,
2013-02-22 05:40:00,18.5,16.1,29.92,North,355,1.0,1.0,90,0.00,,,0.00,Wunderground v.1.15,2013-02-22 11:40:00,
2013-02-22 05:50:00,18.5,16.1,29.92,NNW,332,1.0,3.0,90,0.00,,,0.00,Wunderground v.1.15,2013-02-22 11:50:00,
2013-02-22 06:05:00,18.5,16.1,29.93,NW,326,1.0,1.0,90,0.00,,,0.00,Wunderground v.1.15,2013-02-22 12:05:00,
2013-02-22 06:15:00,18.5,15.8,29.92,WNW,296,2.0,3.0,89,0.00,,,0.00,Wunderground v.1.15,2013-02-22 12:15:00,
2013-02-22 06:25:00,18.3,15.6,29.93,NW,309,2.0,2.0,89,0.00,,,0.00,Wunderground v.1.15,2013-02-22 12:25:00,
2013-02-22 06:30:00,18.3,15.6,29.93,NW,314,2.0,2.0,89,0.00,,,0.00,Wunderground v.1.15,2013-02-22 12:30:00,
2013-02-22 06:40:00,18.1,15.4,29.93,NW,325,2.0,3.0,89,0.00,,,0.00,Wunderground v.1.15,2013-02-22 12:40:00,
2013-02-22 06:45:00,18.1,15.4,29.93,WNW,296,3.0,4.0,89,0.00,,,0.00,Wunderground v.1.15,2013-02-22 12:45:00,
2013-02-22 06:55:00,18.0,15.3,29.94,NW,326,3.0,3.0,89,0.00,,,0.00,Wunderground v.1.15,2013-02-22 12:55:00,
2013-02-22 07:00:00,18.0,15.0,29.94,NW,319,3.0,3.0,88,0.00,,,0.00,Wunderground v.1.15,2013-02-22 13:00:00,
2013-02-22 07:06:00,17.9,14.9,29.95,NW,322,3.0,3.0,88,0.00,,,0.00,Wunderground v.1.15,2013-02-22 13:06:00,
2013-02-22 07:15:00,17.9,14.9,29.95,NNW,335,3.0,4.0,88,0.00,,,0.00,Wunderground v.1.15,2013-02-22 13:15:00,
2013-02-22 07:30:00,17.9,14.9,29.95,NW,322,2.0,5.0,88,0.00,,,0.00,Wunderground v.1.15,2013-02-22 13:30:00,
2013-02-22 07:40:00,18.0,15.0,29.96,NNW,332,3.0,3.0,88,0.00,,,0.00,Wunderground v.1.15,2013-02-22 13:40:00,
2013-02-22 07:55:00,18.0,14.8,29.97,NW,315,3.0,3.0,87,0.00,,,0.00,Wunderground v.1.15,2013-02-22 13:55:00,
2013-02-22 08:05:00,17.9,14.7,29.97,NW,323,3.0,6.0,87,0.00,,,0.00,Wunderground v.1.15,2013-02-22 14:05:00,
2013-02-22 08:10:00,17.9,14.4,29.98,NW,304,3.0,6.0,86,0.00,,,0.00,Wunderground v.1.15,2013-02-22 14:10:00,
2013-02-22 08:15:00,17.9,14.4,29.98,NW,307,3.0,3.0,86,0.00,,,0.00,Wunderground v.1.15,2013-02-22 14:15:00,
2013-02-22 08:25:00,17.8,14.3,29.99,WNW,301,2.0,5.0,86,0.00,,,0.00,Wunderground v.1.15,2013-02-22 14:25:00,
2013-02-22 08:30:00,17.7,14.0,29.99,NW,314,3.0,5.0,85,0.00,,,0.00,Wunderground v.1.15,2013-02-22 14:30:00,
2013-02-22 08:40:00,17.5,13.8,29.99,NW,322,3.0,5.0,85,0.00,,,0.00,Wunderground v.1.15,2013-02-22 14:40:00,
2013-02-22 08:50:00,17.5,13.8,29.99,NW,315,3.0,3.0,85,0.00,,,0.00,Wunderground v.1.15,2013-02-22 14:50:00,
2013-02-22 08:55:00,17.7,14.0,30.00,NW,321,3.0,3.0,85,0.00,,,0.00,Wunderground v.1.15,2013-02-22 14:55:00,
2013-02-22 09:00:00,17.7,13.7,30.00,WNW,294,2.0,4.0,84,0.00,,,0.00,Wunderground v.1.15,2013-02-22 15:00:00,
2013-02-22 09:05:00,17.9,14.2,30.00,NW,326,3.0,4.0,85,0.00,,,0.00,Wunderground v.1.15,2013-02-22 15:05:00,
2013-02-22 09:11:00,18.2,14.2,30.00,WNW,297,3.0,3.0,84,0.00,,,0.00,Wunderground v.1.15,2013-02-22 15:11:00,
2013-02-22 09:21:00,18.7,14.7,30.00,NW,319,1.0,1.0,84,0.00,,,0.00,Wunderground v.1.15,2013-02-22 15:21:00,
2013-02-22 09:30:00,19.1,14.5,30.01,NW,304,2.0,2.0,82,0.00,,,0.00,Wunderground v.1.15,2013-02-22 15:30:00,
2013-02-22 09:35:00,19.5,14.9,30.01,NW,323,2.0,3.0,82,0.00,,,0.00,Wunderground v.1.15,2013-02-22 15:35:00,
2013-02-22 09:46:00,19.7,14.8,30.01,NW,314,2.0,2.0,81,0.00,,,0.00,Wunderground v.1.15,2013-02-22 15:46:00,
2013-02-22 09:55:00,19.9,15.0,30.02,NNW,327,2.0,4.0,81,0.00,,,0.00,Wunderground v.1.15,2013-02-22 15:55:00,
2013-02-22 10:00:00,20.0,15.1,30.02,NW,318,3.0,3.0,81,0.00,,,0.00,Wunderground v.1.15,2013-02-22 16:00:00,
2013-02-22 10:10:00,20.3,15.4,30.02,NW,315,2.0,3.0,81,0.00,,,0.00,Wunderground v.1.15,2013-02-22 16:10:00,
2013-02-22 10:20:00,20.2,15.0,30.02,West,273,3.0,3.0,80,0.00,,,0.00,Wunderground v.1.15,2013-02-22 16:20:00,
2013-02-22 10:35:00,20.5,15.0,30.02,NW,314,3.0,3.0,79,0.00,,,0.00,Wunderground v.1.15,2013-02-22 16:35:00,
2013-02-22 10:55:00,20.5,15.0,30.03,West,278,4.0,4.0,79,0.00,,,0.00,Wunderground v.1.15,2013-02-22 16:55:00,
2013-02-22 11:01:00,20.5,15.0,30.03,WNW,297,3.0,3.0,79,0.00,,,0.00,Wunderground v.1.15,2013-02-22 17:01:00,
2013-02-22 11:10:00,20.9,15.4,30.04,NW,304,3.0,3.0,79,0.00,,,0.00,Wunderground v.1.15,2013-02-22 17:10:00,
2013-02-22 11:20:00,20.8,15.3,30.04,NW,304,3.0,3.0,79,0.00,,,0.00,Wunderground v.1.15,2013-02-22 17:20:00,
2013-02-22 11:35:00,21.2,15.4,30.05,NW,307,3.0,3.0,78,0.00,,,0.00,Wunderground v.1.15,2013-02-22 17:35:00,
2013-02-22 11:40:00,21.5,15.4,30.05,WNW,300,3.0,4.0,77,0.00,,,0.00,Wunderground v.1.15,2013-02-22 17:40:00,
2013-02-22 11:45:00,21.5,15.4,30.05,NW,324,3.0,3.0,77,0.00,,,0.00,Wunderground v.1.15,2013-02-22 17:45:00,
2013-02-22 11:55:00,22.3,16.2,30.06,WNW,282,3.0,3.0,77,0.00,,,0.00,Wunderground v.1.15,2013-02-22 17:55:00,
2013-02-22 12:01:00,22.6,15.9,30.06,West,273,2.0,2.0,75,0.00,,,0.00,Wunderground v.1.15,2013-02-22 18:01:00,
2013-02-22 12:10:00,22.1,15.4,30.06,NW,315,4.0,4.0,75,0.00,,,0.00,Wunderground v.1.15,2013-02-22 18:10:00,
2013-02-22 12:20:00,22.3,15.9,30.06,NW,324,3.0,4.0,76,0.00,,,0.00,Wunderground v.1.15,2013-02-22 18:20:00,
2013-02-22 12:30:00,22.5,16.4,30.07,WSW,250,3.0,3.0,77,0.00,,,0.00,Wunderground v.1.15,2013-02-22 18:30:00,
2013-02-22 12:35:00,22.4,15.7,30.07,West,262,2.0,3.0,75,0.00,,,0.00,Wunderground v.1.15,2013-02-22 18:35:00,
2013-02-22 12:45:00,22.4,16.0,30.07,NW,308,3.0,3.0,76,0.00,,,0.00,Wunderground v.1.15,2013-02-22 18:45:00,
2013-02-22 12:55:00,22.9,16.2,30.06,West,280,3.0,4.0,75,0.00,,,0.00,Wunderground v.1.15,2013-02-22 18:55:00,
2013-02-22 13:05:00,23.1,16.0,30.06,NW,312,3.0,4.0,74,0.00,,,0.00,Wunderground v.1.15,2013-02-22 19:05:00,
2013-02-22 13:12:00,23.2,16.1,30.06,NW,319,3.0,5.0,74,0.00,,,0.00,Wunderground v.1.15,2013-02-22 19:12:00,
2013-02-22 13:20:00,23.6,15.9,30.06,WNW,290,3.0,4.0,72,0.00,,,0.00,Wunderground v.1.15,2013-02-22 19:20:00,
2013-02-22 13:32:00,23.9,16.5,30.06,NW,326,3.0,3.0,73,0.00,,,0.00,Wunderground v.1.15,2013-02-22 19:32:00,
2013-02-22 13:40:00,24.1,16.1,30.06,WSW,240,3.0,5.0,71,0.00,,,0.00,Wunderground v.1.15,2013-02-22 19:40:00,
2013-02-22 13:55:00,23.6,15.9,30.05,WNW,290,4.0,4.0,72,0.00,,,0.00,Wunderground v.1.15,2013-02-22 19:55:00,
2013-02-22 14:05:00,24.0,16.3,30.06,WNW,283,3.0,5.0,72,0.00,,,0.00,Wunderground v.1.15,2013-02-22 20:05:00,
2013-02-22 14:15:00,23.8,15.4,30.06,WNW,295,4.0,4.0,70,0.00,,,0.00,Wunderground v.1.15,2013-02-22 20:15:00,
2013-02-22 14:25:00,23.9,15.9,30.06,WNW,297,4.0,6.0,71,0.00,,,0.00,Wunderground v.1.15,2013-02-22 20:25:00,
2013-02-22 14:31:00,23.4,15.4,30.06,NW,314,4.0,4.0,71,0.00,,,0.00,Wunderground v.1.15,2013-02-22 20:31:00,
2013-02-22 14:41:00,23.9,15.9,30.06,WNW,297,4.0,4.0,71,0.00,,,0.00,Wunderground v.1.15,2013-02-22 20:41:00,
2013-02-22 14:50:00,23.0,15.3,30.06,NW,312,4.0,5.0,72,0.00,,,0.00,Wunderground v.1.15,2013-02-22 20:50:00,
2013-02-22 14:55:00,23.0,15.0,30.06,WNW,300,3.0,4.0,71,0.00,,,0.00,Wunderground v.1.15,2013-02-22 20:55:00,
2013-02-22 15:05:00,24.0,15.3,30.06,WNW,300,3.0,6.0,69,0.00,,,0.00,Wunderground v.1.15,2013-02-22 21:05:00,
2013-02-22 15:10:00,23.9,15.2,30.06,WSW,253,3.0,6.0,69,0.00,,,0.00,Wunderground v.1.15,2013-02-22 21:10:00,
2013-02-22 15:20:00,23.7,15.0,30.06,NW,306,3.0,6.0,69,0.00,,,0.00,Wunderground v.1.15,2013-02-22 21:20:00,
2013-02-22 15:30:00,23.8,15.1,30.06,NW,307,3.0,3.0,69,0.00,,,0.00,Wunderground v.1.15,2013-02-22 21:30:00,
2013-02-22 15:40:00,23.5,14.8,30.06,NNW,328,4.0,4.0,69,0.00,,,0.00,Wunderground v.1.15,2013-02-22 21:40:00,
2013-02-22 15:50:00,23.6,15.2,30.06,WNW,291,4.0,4.0,70,0.00,,,0.00,Wunderground v.1.15,2013-02-22 21:50:00,
2013-02-22 15:55:00,23.5,15.1,30.06,WNW,300,4.0,4.0,70,0.00,,,0.00,Wunderground v.1.15,2013-02-22 21:55:00,
2013-02-22 16:01:00,23.6,15.2,30.06,NW,305,3.0,3.0,70,0.00,,,0.00,Wunderground v.1.15,2013-02-22 22:01:00,
2013-02-22 16:10:00,23.5,14.8,30.07,WNW,285,2.0,3.0,69,0.00,,,0.00,Wunderground v.1.15,2013-02-22 22:10:00,
2013-02-22 16:21:00,23.7,15.0,30.07,WNW,287,2.0,3.0,69,0.00,,,0.00,Wunderground v.1.15,2013-02-22 22:21:00,
2013-02-22 16:30:00,23.3,15.0,30.07,WNW,294,2.0,2.0,70,0.00,,,0.00,Wunderground v.1.15,2013-02-22 22:30:00,
2013-02-22 16:35:00,23.3,15.0,30.07,West,276,3.0,3.0,70,0.00,,,0.00,Wunderground v.1.15,2013-02-22 22:35:00,
2013-02-22 16:46:00,23.4,15.4,30.07,NW,315,2.0,4.0,71,0.00,,,0.00,Wunderground v.1.15,2013-02-22 22:46:00,
2013-02-22 16:55:00,23.3,15.3,30.07,NW,304,3.0,3.0,71,0.00,,,0.00,Wunderground v.1.15,2013-02-22 22:55:00,
2013-02-22 17:05:00,22.9,15.2,30.07,West,271,2.0,5.0,72,0.00,,,0.00,Wunderground v.1.15,2013-02-22 23:05:00,
2013-02-22 17:10:00,22.7,15.0,30.07,West,262,2.0,5.0,72,0.00,,,0.00,Wunderground v.1.15,2013-02-22 23:10:00,
2013-02-22 17:20:00,22.5,15.1,30.08,NW,318,2.0,5.0,73,0.00,,,0.00,Wunderground v.1.15,2013-02-22 23:20:00,
2013-02-22 17:25:00,22.3,15.0,30.08,WNW,295,3.0,3.0,73,0.00,,,0.00,Wunderground v.1.15,2013-02-22 23:25:00,
2013-02-22 17:40:00,22.0,15.3,30.08,WNW,291,2.0,2.0,75,0.00,,,0.00,Wunderground v.1.15,2013-02-22 23:40:00,
2013-02-22 17:47:00,21.9,15.2,30.08,WNW,294,2.0,2.0,75,0.00,,,0.00,Wunderground v.1.15,2013-02-22 23:47:00,
2013-02-22 17:55:00,21.8,15.1,30.08,WNW,296,2.0,2.0,75,0.00,,,0.00,Wunderground v.1.15,2013-02-22 23:55:00,
2013-02-22 18:02:00,21.7,15.0,30.08,NW,316,2.0,2.0,75,0.00,,,0.00,Wunderground v.1.15,2013-02-23 00:02:00,
2013-02-22 18:11:00,21.6,14.9,30.09,NNW,333,2.0,6.0,75,0.00,,,0.00,Wunderground v.1.15,2013-02-23 00:11:00,
2013-02-22 18:21:00,21.5,14.8,30.09,NW,315,3.0,3.0,75,0.00,,,0.00,Wunderground v.1.15,2013-02-23 00:21:00,
2013-02-22 18:32:00,21.5,15.1,30.09,WNW,287,2.0,4.0,76,0.00,,,0.00,Wunderground v.1.15,2013-02-23 00:32:00,
2013-02-22 18:40:00,21.4,14.7,30.09,WNW,300,3.0,4.0,75,0.00,,,0.00,Wunderground v.1.15,2013-02-23 00:40:00,
2013-02-22 19:01:00,21.3,14.9,30.09,WNW,302,2.0,2.0,76,0.00,,,0.00,Wunderground v.1.15,2013-02-23 01:01:00,
2013-02-22 19:10:00,21.2,14.8,30.10,NW,304,1.0,2.0,76,0.00,,,0.00,Wunderground v.1.15,2013-02-23 01:10:00,
2013-02-22 19:36:00,20.4,14.3,30.10,NW,318,1.0,1.0,77,0.00,,,0.00,Wunderground v.1.15,2013-02-23 01:36:00,
2013-02-22 19:45:00,19.9,14.1,30.10,WNW,293,0.0,1.0,78,0.00,,,0.00,Wunderground v.1.15,2013-02-23 01:45:00,
2013-02-22 19:55:00,19.3,13.9,30.10,WNW,293,0.0,0.0,79,0.00,,,0.00,Wunderground v.1.15,2013-02-23 01:55:00,
2013-02-22 20:01:00,19.0,13.6,30.10,WNW,290,0.0,0.0,79,0.00,,,0.00,Wunderground v.1.15,2013-02-23 02:01:00,
2013-02-22 20:11:00,18.6,13.5,30.09,SW,214,0.0,0.0,80,0.00,,,0.00,Wunderground v.1.15,2013-02-23 02:11:00,
2013-02-22 20:16:00,18.3,13.2,30.09,West,259,0.0,0.0,80,0.00,,,0.00,Wunderground v.1.15,2013-02-23 02:16:00,
2013-02-22 20:25:00,17.9,13.1,30.09,West,264,0.0,0.0,81,0.00,,,0.00,Wunderground v.1.15,2013-02-23 02:25:00,
2013-02-22 20:35:00,17.4,12.8,30.09,West,264,0.0,0.0,82,0.00,,,0.00,Wunderground v.1.15,2013-02-23 02:35:00,
2013-02-22 20:46:00,16.8,12.3,30.09,West,264,0.0,0.0,82,0.00,,,0.00,Wunderground v.1.15,2013-02-23 02:46:00,
2013-02-22 21:00:00,16.2,12.2,30.10,West,264,0.0,0.0,84,0.00,,,0.00,Wunderground v.1.15,2013-02-23 03:00:00,
2013-02-22 21:11:00,15.7,11.7,30.10,West,262,0.0,0.0,84,0.00,,,0.00,Wunderground v.1.15,2013-02-23 03:11:00,
2013-02-22 21:20:00,15.3,11.3,30.10,West,261,0.0,0.0,84,0.00,,,0.00,Wunderground v.1.15,2013-02-23 03:20:00,
2013-02-22 21:26:00,15.0,11.0,30.10,West,262,0.0,0.0,84,0.00,,,0.00,Wunderground v.1.15,2013-02-23 03:26:00,
2013-02-22 21:51:00,14.5,10.8,30.10,West,262,0.0,0.0,85,0.00,,,0.00,Wunderground v.1.15,2013-02-23 03:51:00,
2013-02-22 22:00:00,14.1,10.7,30.10,West,262,0.0,0.0,86,0.00,,,0.00,Wunderground v.1.15,2013-02-23 04:00:00,
2013-02-22 22:15:00,14.2,10.8,30.10,West,262,0.0,0.0,86,0.00,,,0.00,Wunderground v.1.15,2013-02-23 04:15:00,
2013-02-22 22:25:00,14.2,10.8,30.09,WSW,244,0.0,0.0,86,0.00,,,0.00,Wunderground v.1.15,2013-02-23 04:25:00,
2013-02-22 22:35:00,13.9,10.5,30.09,WSW,244,0.0,0.0,86,0.00,,,0.00,Wunderground v.1.15,2013-02-23 04:35:00,
2013-02-22 22:41:00,13.9,10.5,30.09,WSW,244,0.0,0.0,86,0.00,,,0.00,Wunderground v.1.15,2013-02-23 04:41:00,
2013-02-22 22:56:00,13.3,9.9,30.09,WSW,245,0.0,0.0,86,0.00,,,0.00,Wunderground v.1.15,2013-02-23 04:56:00,
2013-02-22 23:00:00,13.2,10.1,30.09,WSW,245,0.0,0.0,87,0.00,,,0.00,Wunderground v.1.15,2013-02-23 05:00:00,
2013-02-22 23:07:00,13.0,9.9,30.09,WSW,244,0.0,0.0,87,0.00,,,0.00,Wunderground v.1.15,2013-02-23 05:07:00,
2013-02-22 23:10:00,13.0,9.9,30.09,WSW,244,0.0,1.0,87,0.00,,,0.00,Wunderground v.1.15,2013-02-23 05:10:00,
2013-02-22 23:20:00,12.8,9.7,30.09,SW,214,0.0,0.0,87,0.00,,,0.00,Wunderground v.1.15,2013-02-23 05:20:00,
2013-02-22 23:31:00,12.6,9.5,30.09,SSW,208,0.0,0.0,87,0.00,,,0.00,Wunderground v.1.15,2013-02-23 05:31:00,
2013-02-22 23:43:00,12.5,9.4,30.09,SSW,208,0.0,0.0,87,0.00,,,0.00,Wunderground v.1.15,2013-02-23 05:43:00,
2013-02-22 23:45:00,12.5,9.6,30.08,SSW,208,0.0,0.0,88,0.00,,,0.00,Wunderground v.1.15,2013-02-23 05:45:00,